createdAt,value
2019-02-26T00:00:07.615Z,962.92
2019-02-26T00:02:32.591Z,962.94
2019-02-26T00:04:58.589Z,962.87
2019-02-26T00:07:27.077Z,962.92
2019-02-26T00:09:51.385Z,962.82
2019-02-26T00:12:19.972Z,962.78
2019-02-26T00:14:45.366Z,962.80
2019-02-26T00:17:11.193Z,962.77
2019-02-26T00:19:36.091Z,962.72
2019-02-26T00:22:02.492Z,962.69
2019-02-26T00:24:30.760Z,962.67
2019-02-26T00:26:55.099Z,962.72
2019-02-26T00:29:23.162Z,962.65
2019-02-26T00:31:49.009Z,962.66
2019-02-26T00:34:15.970Z,962.64
2019-02-26T00:36:40.338Z,962.49
2019-02-26T00:39:07.268Z,962.39
2019-02-26T00:41:33.557Z,962.41
2019-02-26T00:43:59.858Z,962.38
2019-02-26T00:46:27.873Z,962.56
2019-02-26T00:48:51.883Z,962.62
2019-02-26T00:51:20.460Z,962.40
2019-02-26T00:53:44.520Z,962.34
2019-02-26T00:56:10.903Z,962.40
2019-02-26T00:58:39.217Z,962.27
2019-02-26T01:01:03.523Z,962.23
2019-02-26T01:03:29.832Z,962.17
2019-02-26T01:05:57.032Z,962.01
2019-02-26T01:08:22.455Z,961.95
2019-02-26T01:10:48.769Z,962.01
2019-02-26T01:13:15.077Z,961.91
2019-02-26T01:15:41.390Z,961.78
2019-02-26T01:18:07.698Z,961.77
2019-02-26T01:20:34.018Z,961.70
2019-02-26T01:23:00.313Z,961.68
2019-02-26T01:25:26.619Z,961.62
2019-02-26T01:27:53.271Z,961.64
2019-02-26T01:30:23.535Z,961.67
2019-02-26T01:32:45.544Z,961.55
2019-02-26T01:35:12.912Z,961.48
2019-02-26T01:37:38.159Z,961.56
2019-02-26T01:40:07.355Z,961.52
2019-02-26T01:42:31.656Z,961.53
2019-02-26T01:44:57.101Z,961.55
2019-02-26T01:47:24.232Z,961.48
2019-02-26T01:49:51.111Z,961.58
2019-02-26T01:52:17.398Z,961.64
2019-02-26T01:54:42.342Z,961.51
2019-02-26T01:57:09.255Z,961.55
2019-02-26T01:59:34.961Z,961.41
2019-02-26T02:02:01.284Z,961.45
2019-02-26T02:04:27.593Z,961.42
2019-02-26T02:06:54.944Z,961.38
2019-02-26T02:09:20.945Z,961.31
2019-02-26T02:11:46.550Z,961.17
2019-02-26T02:14:14.871Z,961.18
2019-02-26T02:16:39.173Z,961.18
2019-02-26T02:19:05.481Z,961.22
2019-02-26T02:21:33.775Z,961.11
2019-02-26T02:23:58.103Z,961.12
2019-02-26T02:26:24.399Z,960.96
2019-02-26T02:28:50.709Z,961.05
2019-02-26T02:31:17.029Z,960.97
2019-02-26T02:33:43.380Z,960.94
2019-02-26T02:36:11.685Z,960.99
2019-02-26T02:38:37.093Z,960.92
2019-02-26T02:41:02.332Z,960.80
2019-02-26T02:43:28.657Z,960.88
2019-02-26T02:45:56.405Z,960.87
2019-02-26T02:48:21.285Z,960.89
2019-02-26T02:50:47.597Z,960.91
2019-02-26T02:53:13.904Z,960.97
2019-02-26T02:55:42.772Z,960.92
2019-02-26T02:58:06.529Z,960.94
2019-02-26T03:00:34.470Z,960.82
2019-02-26T03:02:59.157Z,960.86
2019-02-26T03:05:25.463Z,960.90
2019-02-26T03:07:54.031Z,960.88
2019-02-26T03:10:18.119Z,960.99
2019-02-26T03:12:51.213Z,960.87
2019-02-26T03:15:10.724Z,960.80
2019-02-26T03:17:37.016Z,960.85
2019-02-26T03:20:04.964Z,960.87
2019-02-26T03:22:29.632Z,960.76
2019-02-26T03:24:57.481Z,960.75
2019-02-26T03:27:22.252Z,960.78
2019-02-26T03:29:49.922Z,960.77
2019-02-26T03:32:14.866Z,960.81
2019-02-26T03:34:41.177Z,960.82
2019-02-26T03:37:08.227Z,960.90
2019-02-26T03:39:36.817Z,960.86
2019-02-26T03:42:03.129Z,960.93
2019-02-26T03:44:30.260Z,960.82
2019-02-26T03:46:55.774Z,960.91
2019-02-26T03:49:26.355Z,961.02
2019-02-26T03:51:48.441Z,961.04
2019-02-26T03:54:14.750Z,960.95
2019-02-26T03:56:41.054Z,960.98
2019-02-26T03:59:09.519Z,961.08
2019-02-26T04:01:33.704Z,961.07
2019-02-26T04:04:02.345Z,961.03
2019-02-26T04:06:26.331Z,960.98
2019-02-26T04:08:53.575Z,961.02
2019-02-26T04:11:20.002Z,960.92
2019-02-26T04:13:46.109Z,960.84
2019-02-26T04:16:11.567Z,960.75
2019-02-26T04:18:37.901Z,960.72
2019-02-26T04:21:06.067Z,960.64
2019-02-26T04:23:30.517Z,960.65
2019-02-26T04:25:57.678Z,960.69
2019-02-26T04:28:27.417Z,960.55
2019-02-26T04:30:51.720Z,960.76
2019-02-26T04:33:15.792Z,960.73
2019-02-26T04:35:44.370Z,960.68
2019-02-26T04:38:08.406Z,960.62
2019-02-26T04:40:36.341Z,960.61
2019-02-26T04:43:01.886Z,960.41
2019-02-26T04:45:27.349Z,960.39
2019-02-26T04:47:56.921Z,960.34
2019-02-26T04:50:23.020Z,960.22
2019-02-26T04:52:46.291Z,960.22
2019-02-26T04:55:12.690Z,960.23
2019-02-26T04:57:41.999Z,960.23
2019-02-26T05:00:07.452Z,960.17
2019-02-26T05:02:31.596Z,960.19
2019-02-26T05:04:57.966Z,960.11
2019-02-26T05:07:24.266Z,960.06
2019-02-26T05:09:53.167Z,959.96
2019-02-26T05:12:16.895Z,959.88
2019-02-26T05:14:43.206Z,959.86
2019-02-26T05:17:09.516Z,959.92
2019-02-26T05:19:36.531Z,959.86
2019-02-26T05:22:04.359Z,959.80
2019-02-26T05:24:28.458Z,959.74
2019-02-26T05:26:54.773Z,959.82
2019-02-26T05:29:21.076Z,959.90
2019-02-26T05:31:47.386Z,959.86
2019-02-26T05:34:15.202Z,959.90
2019-02-26T05:36:42.886Z,959.96
2019-02-26T05:39:06.306Z,959.98
2019-02-26T05:41:32.617Z,959.95
2019-02-26T05:44:01.259Z,960.03
2019-02-26T05:46:27.471Z,960.09
2019-02-26T05:48:51.575Z,960.04
2019-02-26T05:51:17.888Z,959.91
2019-02-26T05:53:44.199Z,959.99
2019-02-26T05:56:11.618Z,960.02
2019-02-26T05:58:38.769Z,959.99
2019-02-26T06:01:03.112Z,960.03
2019-02-26T06:03:29.423Z,960.06
2019-02-26T06:05:58.268Z,960.06
2019-02-26T06:08:25.661Z,960.11
2019-02-26T06:10:48.368Z,960.00
2019-02-26T06:13:15.651Z,960.02
2019-02-26T06:15:40.988Z,960.03
2019-02-26T06:18:07.291Z,960.12
2019-02-26T06:20:36.113Z,960.17
2019-02-26T06:22:59.903Z,960.08
2019-02-26T06:25:26.231Z,960.08
2019-02-26T06:27:52.522Z,960.01
2019-02-26T06:30:18.836Z,959.87
2019-02-26T06:32:45.178Z,959.86
2019-02-26T06:35:13.533Z,960.00
2019-02-26T06:37:40.056Z,960.04
2019-02-26T06:40:05.677Z,959.99
2019-02-26T06:42:31.540Z,959.96
2019-02-26T06:44:56.700Z,959.87
2019-02-26T06:47:24.119Z,959.89
2019-02-26T06:49:50.301Z,959.77
2019-02-26T06:52:17.909Z,959.79
2019-02-26T06:54:41.977Z,959.74
2019-02-26T06:57:08.307Z,959.70
2019-02-26T06:59:36.779Z,959.71
2019-02-26T07:02:01.091Z,959.81
2019-02-26T07:04:30.065Z,959.75
2019-02-26T07:06:55.382Z,959.64
2019-02-26T07:09:20.479Z,959.69
2019-02-26T07:11:46.363Z,959.80
2019-02-26T07:14:12.675Z,959.67
2019-02-26T07:16:40.373Z,959.76
2019-02-26T07:19:06.629Z,959.77
2019-02-26T07:21:31.614Z,959.72
2019-02-26T07:23:58.816Z,959.68
2019-02-26T07:26:24.714Z,959.67
2019-02-26T07:28:51.166Z,959.68
2019-02-26T07:31:17.341Z,959.63
2019-02-26T07:33:43.647Z,959.70
2019-02-26T07:36:09.983Z,959.62
2019-02-26T07:38:41.351Z,959.55
2019-02-26T07:41:03.812Z,959.45
2019-02-26T07:43:28.911Z,959.28
2019-02-26T07:45:55.226Z,959.19
2019-02-26T07:48:23.816Z,959.10
2019-02-26T07:50:49.053Z,959.04
2019-02-26T07:53:15.073Z,959.04
2019-02-26T07:55:42.315Z,958.89
2019-02-26T07:58:08.766Z,958.83
2019-02-26T08:00:36.990Z,958.94
2019-02-26T08:03:00.209Z,958.92
2019-02-26T08:05:28.335Z,959.00
2019-02-26T08:07:54.040Z,959.05
2019-02-26T08:10:19.546Z,959.05
2019-02-26T08:12:44.817Z,958.98
2019-02-26T08:15:12.729Z,959.01
2019-02-26T08:17:37.429Z,958.98
2019-02-26T08:20:06.835Z,959.08
2019-02-26T08:22:31.889Z,959.06
2019-02-26T08:24:58.099Z,959.11
2019-02-26T08:27:22.872Z,959.06
2019-02-26T08:29:49.833Z,958.93
2019-02-26T08:32:18.114Z,958.89
2019-02-26T08:34:41.920Z,958.92
2019-02-26T08:37:08.227Z,958.89
2019-02-26T08:39:35.647Z,958.91
2019-02-26T08:42:00.863Z,958.85
2019-02-26T08:44:28.197Z,958.78
2019-02-26T08:46:53.645Z,958.78
2019-02-26T08:49:22.097Z,958.67
2019-02-26T08:51:46.281Z,958.65
2019-02-26T08:54:20.517Z,958.63
2019-02-26T08:56:40.896Z,958.54
2019-02-26T08:59:05.219Z,958.46
2019-02-26T09:01:31.530Z,958.52
2019-02-26T09:03:58.909Z,958.43
2019-02-26T09:06:25.424Z,958.38
2019-02-26T09:08:51.813Z,958.37
2019-02-26T09:11:18.119Z,958.33
2019-02-26T09:13:44.439Z,958.24
2019-02-26T09:16:10.739Z,958.24
2019-02-26T09:18:39.985Z,958.18
2019-02-26T09:21:03.563Z,958.11
2019-02-26T09:23:30.614Z,958.11
2019-02-26T09:25:57.147Z,958.06
2019-02-26T09:28:24.723Z,957.99
2019-02-26T09:30:48.888Z,957.99
2019-02-26T09:33:15.252Z,958.04
2019-02-26T09:35:41.617Z,958.04
2019-02-26T09:38:08.135Z,958.09
2019-02-26T09:40:34.462Z,958.02
2019-02-26T09:43:00.677Z,958.00
2019-02-26T09:45:30.019Z,958.01
2019-02-26T09:47:55.724Z,958.04
2019-02-26T09:50:22.199Z,957.99
2019-02-26T09:52:47.772Z,957.87
2019-02-26T09:55:12.297Z,957.89
2019-02-26T09:57:38.601Z,957.82
2019-02-26T10:00:04.986Z,957.76
2019-02-26T10:02:31.312Z,957.73
2019-02-26T10:04:57.590Z,957.57
2019-02-26T10:07:23.892Z,957.54
2019-02-26T10:09:50.204Z,957.57
2019-02-26T10:12:16.525Z,957.49
2019-02-26T10:14:42.928Z,957.41
2019-02-26T10:17:11.507Z,957.24
2019-02-26T10:19:35.653Z,957.23
2019-02-26T10:22:05.501Z,957.33
2019-02-26T10:24:30.214Z,957.31
2019-02-26T10:26:58.716Z,957.22
2019-02-26T10:29:21.105Z,957.09
2019-02-26T10:31:47.431Z,957.09
2019-02-26T10:34:15.640Z,957.16
2019-02-26T10:36:43.405Z,957.24
2019-02-26T10:39:07.439Z,957.12
2019-02-26T10:41:34.865Z,957.08
2019-02-26T10:43:59.037Z,957.01
2019-02-26T10:46:25.309Z,956.95
2019-02-26T10:48:52.857Z,956.86
2019-02-26T10:51:18.008Z,956.80
2019-02-26T10:53:44.306Z,956.81
2019-02-26T10:56:10.696Z,956.77
2019-02-26T10:58:37.027Z,956.69
2019-02-26T11:01:05.210Z,956.51
2019-02-26T11:03:30.003Z,956.54
2019-02-26T11:05:56.018Z,956.50
2019-02-26T11:08:24.695Z,956.44
2019-02-26T11:10:50.243Z,956.21
2019-02-26T11:13:17.579Z,956.20
2019-02-26T11:15:41.289Z,956.08
2019-02-26T11:18:08.205Z,955.99
2019-02-26T11:20:34.361Z,956.02
2019-02-26T11:23:00.295Z,955.94
2019-02-26T11:25:27.593Z,955.86
2019-02-26T11:27:53.086Z,955.80
2019-02-26T11:30:21.122Z,955.75
2019-02-26T11:32:45.848Z,955.44
2019-02-26T11:35:14.373Z,955.41
2019-02-26T11:37:38.484Z,955.38
2019-02-26T11:40:05.526Z,955.38
2019-02-26T11:42:31.130Z,955.29
2019-02-26T11:44:57.456Z,955.41
2019-02-26T11:47:23.763Z,955.42
2019-02-26T11:49:50.078Z,955.38
2019-02-26T11:52:19.593Z,955.40
2019-02-26T11:54:44.550Z,955.38
2019-02-26T11:57:11.197Z,955.32
2019-02-26T11:59:35.678Z,955.19
2019-02-26T12:02:03.926Z,955.32
2019-02-26T12:04:27.971Z,955.24
2019-02-26T12:06:55.835Z,955.29
2019-02-26T12:09:20.589Z,955.17
2019-02-26T12:11:46.910Z,955.22
2019-02-26T12:14:13.762Z,955.16
2019-02-26T12:16:39.528Z,955.19
2019-02-26T12:19:08.156Z,955.03
2019-02-26T12:21:32.746Z,954.92
2019-02-26T12:24:00.561Z,954.85
2019-02-26T12:26:25.568Z,954.89
2019-02-26T12:28:52.346Z,954.90
2019-02-26T12:31:17.439Z,954.77
2019-02-26T12:33:43.735Z,954.69
2019-02-26T12:36:10.406Z,954.61
2019-02-26T12:38:36.788Z,954.68
2019-02-26T12:41:02.718Z,954.58
2019-02-26T12:43:30.183Z,954.56
2019-02-26T12:45:58.781Z,954.51
2019-02-26T12:48:22.731Z,954.51
2019-02-26T12:50:47.973Z,954.51
2019-02-26T12:53:17.302Z,954.49
2019-02-26T12:55:42.339Z,954.43
2019-02-26T12:58:06.916Z,954.40
2019-02-26T13:00:34.866Z,954.35
2019-02-26T13:02:59.591Z,954.33
2019-02-26T13:05:25.903Z,954.36
2019-02-26T13:07:52.238Z,954.25
2019-02-26T13:10:18.550Z,954.14
2019-02-26T13:12:48.822Z,954.08
2019-02-26T13:15:11.178Z,953.89
2019-02-26T13:17:37.505Z,953.99
2019-02-26T13:20:05.829Z,953.92
2019-02-26T13:22:30.129Z,953.81
2019-02-26T13:24:56.433Z,953.72
2019-02-26T13:27:22.741Z,953.63
2019-02-26T13:29:54.545Z,953.83
2019-02-26T13:32:17.576Z,953.62
2019-02-26T13:34:41.691Z,953.66
2019-02-26T13:37:07.998Z,953.60
2019-02-26T13:39:38.413Z,953.47
2019-02-26T13:42:09.089Z,953.53
2019-02-26T13:44:26.928Z,953.36
2019-02-26T13:46:53.236Z,953.22
2019-02-26T13:49:19.549Z,953.10
2019-02-26T13:51:45.884Z,953.08
2019-02-26T13:54:12.193Z,952.99
2019-02-26T13:56:38.513Z,952.98
2019-02-26T13:59:04.813Z,953.01
2019-02-26T14:01:31.113Z,953.06
2019-02-26T14:03:57.424Z,953.14
2019-02-26T14:06:23.745Z,953.01
2019-02-26T14:08:50.052Z,953.04
2019-02-26T14:11:16.365Z,952.87
2019-02-26T14:13:42.687Z,952.81
2019-02-26T14:16:09.029Z,952.84
2019-02-26T14:18:35.306Z,952.71
2019-02-26T14:21:01.762Z,952.73
2019-02-26T14:23:28.147Z,952.70
2019-02-26T14:25:54.380Z,952.59
2019-02-26T14:28:20.693Z,952.46
2019-02-26T14:30:47.001Z,952.60
2019-02-26T14:33:13.352Z,952.51
2019-02-26T14:35:39.661Z,952.37
2019-02-26T14:38:06.043Z,952.35
2019-02-26T14:40:32.363Z,952.31
2019-02-26T14:42:58.672Z,952.37
2019-02-26T14:45:28.130Z,952.30
2019-02-26T14:47:54.442Z,952.19
2019-02-26T14:50:20.759Z,952.23
2019-02-26T14:52:47.065Z,952.21
2019-02-26T14:55:13.376Z,952.15
2019-02-26T14:57:39.724Z,952.14
2019-02-26T15:00:06.032Z,951.93
2019-02-26T15:02:32.351Z,952.01
2019-02-26T15:04:58.661Z,952.01
2019-02-26T15:07:24.992Z,951.87
2019-02-26T15:09:51.307Z,951.84
2019-02-26T15:12:17.624Z,951.77
2019-02-26T15:14:43.948Z,951.76
2019-02-26T15:17:10.266Z,951.82
2019-02-26T15:19:36.579Z,951.68
2019-02-26T15:22:02.893Z,951.65
2019-02-26T15:24:29.212Z,951.55
2019-02-26T15:26:55.518Z,951.57
2019-02-26T15:29:21.834Z,951.58
2019-02-26T15:31:48.138Z,951.60
2019-02-26T15:34:14.464Z,951.65
2019-02-26T15:36:40.773Z,951.70
2019-02-26T15:39:07.107Z,951.58
2019-02-26T15:41:34.173Z,951.70
2019-02-26T15:43:59.728Z,951.81
2019-02-26T15:46:26.032Z,951.79
2019-02-26T15:48:52.340Z,951.76
2019-02-26T15:51:20.129Z,951.81
2019-02-26T15:53:45.101Z,951.81
2019-02-26T15:56:11.409Z,951.88
2019-02-26T15:58:37.715Z,951.78
2019-02-26T16:01:04.019Z,951.95
2019-02-26T16:03:30.330Z,952.00
2019-02-26T16:05:56.681Z,951.95
2019-02-26T16:08:22.997Z,952.00
2019-02-26T16:10:49.340Z,951.81
2019-02-26T16:13:15.656Z,951.92
2019-02-26T16:15:41.996Z,951.94
2019-02-26T16:18:08.343Z,951.89
2019-02-26T16:20:34.659Z,951.94
2019-02-26T16:23:01.053Z,951.92
2019-02-26T16:25:27.361Z,951.86
2019-02-26T16:27:54.369Z,951.89
2019-02-26T16:30:20.032Z,951.92
2019-02-26T16:32:46.344Z,952.07
2019-02-26T16:35:12.652Z,951.95
2019-02-26T16:37:41.592Z,952.16
2019-02-26T16:40:05.299Z,952.17
2019-02-26T16:42:31.607Z,952.25
2019-02-26T16:44:58.322Z,952.26
2019-02-26T16:47:24.272Z,952.30
2019-02-26T16:49:51.746Z,952.36
2019-02-26T16:52:16.899Z,952.38
2019-02-26T16:54:43.204Z,952.48
2019-02-26T16:57:09.512Z,952.45
2019-02-26T16:59:35.824Z,952.52
2019-02-26T17:02:02.134Z,952.59
2019-02-26T17:04:28.446Z,952.56
2019-02-26T17:06:54.755Z,952.64
2019-02-26T17:09:21.592Z,952.53
2019-02-26T17:11:47.603Z,952.52
2019-02-26T17:14:14.791Z,952.63
2019-02-26T17:16:39.995Z,952.72
2019-02-26T17:19:06.308Z,952.61
2019-02-26T17:21:32.622Z,952.60
2019-02-26T17:23:58.955Z,952.58
2019-02-26T17:26:25.264Z,952.55
2019-02-26T17:28:51.621Z,952.62
2019-02-26T17:31:17.924Z,952.54
2019-02-26T17:33:44.721Z,952.44
2019-02-26T17:36:10.541Z,952.40
2019-02-26T17:38:36.852Z,952.44
2019-02-26T17:41:05.980Z,952.34
2019-02-26T17:43:32.354Z,952.39
2019-02-26T17:45:58.663Z,952.51
2019-02-26T17:48:24.970Z,952.63
2019-02-26T17:50:51.299Z,952.60
2019-02-26T17:53:17.642Z,952.51
2019-02-26T17:55:43.921Z,952.60
2019-02-26T17:58:10.795Z,952.57
2019-02-26T18:00:36.545Z,952.61
2019-02-26T18:03:06.366Z,952.57
2019-02-26T18:05:29.221Z,952.56
2019-02-26T18:07:55.532Z,952.54
2019-02-26T18:10:21.841Z,952.52
2019-02-26T18:12:48.142Z,952.50
2019-02-26T18:15:16.608Z,952.47
2019-02-26T18:17:43.199Z,952.51
2019-02-26T18:20:09.523Z,952.57
2019-02-26T18:22:35.862Z,952.49
2019-02-26T18:25:02.195Z,952.42
2019-02-26T18:27:30.587Z,952.46
2019-02-26T18:29:55.321Z,952.54
2019-02-26T18:32:21.659Z,952.53
2019-02-26T18:34:47.967Z,952.55
2019-02-26T18:37:14.276Z,952.55
2019-02-26T18:39:40.695Z,952.58
2019-02-26T18:42:08.297Z,952.49
2019-02-26T18:44:33.330Z,952.42
2019-02-26T18:46:59.637Z,952.37
2019-02-26T18:49:25.962Z,952.28
2019-02-26T18:51:52.295Z,952.34
2019-02-26T18:54:20.336Z,952.20
2019-02-26T18:56:44.959Z,952.12
2019-02-26T18:59:11.265Z,952.08
2019-02-26T19:01:38.634Z,952.07
2019-02-26T19:04:04.969Z,952.09
2019-02-26T19:06:31.278Z,952.12
2019-02-26T19:08:57.607Z,952.25
2019-02-26T19:11:25.657Z,952.27
2019-02-26T19:13:50.226Z,952.34
2019-02-26T19:16:20.457Z,952.47
2019-02-26T19:18:42.844Z,952.49
2019-02-26T19:21:09.159Z,952.55
2019-02-26T19:23:35.465Z,952.68
2019-02-26T19:26:01.773Z,952.70
2019-02-26T19:28:28.077Z,952.79
2019-02-26T19:30:54.404Z,952.85
2019-02-26T19:33:21.713Z,952.68
2019-02-26T19:35:47.026Z,952.66
2019-02-26T19:38:13.360Z,952.74
2019-02-26T19:40:39.702Z,952.82
2019-02-26T19:43:06.836Z,952.71
2019-02-26T19:45:33.313Z,952.72
2019-02-26T19:48:02.416Z,952.82
2019-02-26T19:50:28.771Z,952.84
2019-02-26T19:52:57.250Z,952.78
2019-02-26T19:55:21.378Z,952.65
2019-02-26T19:57:47.684Z,952.60
2019-02-26T20:00:13.989Z,952.61
2019-02-26T20:02:40.313Z,952.58
2019-02-26T20:05:06.625Z,952.57
2019-02-26T20:07:33.145Z,952.52
2019-02-26T20:09:59.249Z,952.46
2019-02-26T20:12:28.575Z,952.49
2019-02-26T20:14:51.936Z,952.52
2019-02-26T20:17:18.267Z,952.55
2019-02-26T20:19:44.568Z,952.40
2019-02-26T20:22:10.887Z,952.48
2019-02-26T20:24:37.198Z,952.45
2019-02-26T20:27:03.505Z,952.50
2019-02-26T20:29:29.811Z,952.42
2019-02-26T20:31:56.311Z,952.47
2019-02-26T20:34:22.436Z,952.45
2019-02-26T20:36:51.054Z,952.45
2019-02-26T20:39:15.059Z,952.49
2019-02-26T20:41:41.361Z,952.54
2019-02-26T20:44:07.781Z,952.58
2019-02-26T20:46:34.000Z,952.64
2019-02-26T20:49:00.311Z,952.62
2019-02-26T20:51:27.124Z,952.61
2019-02-26T20:53:52.924Z,952.77
2019-02-26T20:56:19.231Z,952.72
2019-02-26T20:58:45.555Z,952.72
2019-02-26T21:01:11.859Z,952.73
2019-02-26T21:03:38.161Z,952.77
2019-02-26T21:06:04.469Z,952.68
2019-02-26T21:08:31.526Z,952.63
2019-02-26T21:10:57.211Z,952.64
2019-02-26T21:13:23.836Z,952.60
2019-02-26T21:15:49.819Z,952.64
2019-02-26T21:18:16.138Z,952.68
2019-02-26T21:20:42.455Z,952.63
2019-02-26T21:23:08.819Z,952.63
2019-02-26T21:25:35.129Z,952.65
2019-02-26T21:28:01.552Z,952.62
2019-02-26T21:30:27.818Z,952.70
2019-02-26T21:32:57.813Z,952.74
2019-02-26T21:35:21.216Z,952.74
2019-02-26T21:37:48.331Z,952.71
2019-02-26T21:40:15.917Z,952.66
2019-02-26T21:42:39.613Z,952.62
2019-02-26T21:45:05.922Z,952.49
2019-02-26T21:47:32.274Z,952.62
2019-02-26T21:49:58.618Z,952.54
2019-02-26T21:52:24.935Z,952.45
2019-02-26T21:54:51.290Z,952.37
2019-02-26T21:57:21.457Z,952.41
2019-02-26T21:59:49.999Z,952.36
2019-02-26T22:02:10.317Z,952.34
2019-02-26T22:04:36.687Z,952.50
2019-02-26T22:07:02.997Z,952.48
2019-02-26T22:09:30.183Z,952.51
2019-02-26T22:11:55.640Z,952.52
2019-02-26T22:14:21.962Z,952.55
2019-02-26T22:16:48.998Z,952.59
2019-02-26T22:19:14.576Z,952.63
2019-02-26T22:21:40.887Z,952.68
2019-02-26T22:24:08.470Z,952.70
2019-02-26T22:26:33.506Z,952.68
2019-02-26T22:28:59.801Z,952.60
2019-02-26T22:31:28.733Z,952.53
2019-02-26T22:33:52.414Z,952.48
2019-02-26T22:36:18.748Z,952.42
2019-02-26T22:38:46.211Z,952.45
2019-02-26T22:41:11.419Z,952.49
2019-02-26T22:43:37.739Z,952.52
2019-02-26T22:46:04.117Z,952.54
2019-02-26T22:48:30.408Z,952.49
2019-02-26T22:50:59.513Z,952.59
2019-02-26T22:53:24.719Z,952.63
2019-02-26T22:55:51.027Z,952.59
2019-02-26T22:58:17.329Z,952.59
2019-02-26T23:00:48.366Z,952.58
2019-02-26T23:03:10.715Z,952.66
2019-02-26T23:05:36.255Z,952.61
2019-02-26T23:08:02.565Z,952.64
2019-02-26T23:10:28.871Z,952.60
2019-02-26T23:12:55.179Z,952.60
2019-02-26T23:15:21.485Z,952.56
2019-02-26T23:17:47.797Z,952.54
2019-02-26T23:20:14.106Z,952.50
2019-02-26T23:22:40.416Z,952.51
2019-02-26T23:25:06.731Z,952.48
2019-02-26T23:27:33.041Z,952.50
2019-02-26T23:29:59.355Z,952.47
2019-02-26T23:32:25.666Z,952.48
2019-02-26T23:34:54.640Z,952.53
2019-02-26T23:37:18.287Z,952.64
2019-02-26T23:39:44.586Z,952.61
2019-02-26T23:42:10.893Z,952.76
2019-02-26T23:44:37.199Z,952.83
2019-02-26T23:47:03.507Z,952.74
2019-02-26T23:49:29.848Z,952.80
2019-02-26T23:51:56.157Z,952.81
2019-02-26T23:54:22.478Z,952.85
2019-02-26T23:56:49.833Z,952.93
2019-02-26T23:59:15.107Z,952.89
